Terminal Aerodrome Forecast
Issued by NWS

Home | Current Version | Previous Version | Text Only | Print | Product List | Glossary On
Versions: 1 2 3 4 5 6 7 8 9 10 11 12 13 14 15 16 17 18 19 20 21 22 23 24
000
FTUS43 KDLH 230526
TAFHYR
TAF
KHYR 230526Z 2306/2406 VRB04KT 3SM BR SCT002
      TEMPO 2306/2307 3/4SM BR VV002
     FM230700 33004KT 1SM BR BKN002
      TEMPO 2307/2311 3/4SM BR
     FM231200 VRB03KT 6SM BR BKN015 BKN040
     FM231700 01007KT P6SM SCT020 BKN040
     FM232200 04007KT P6SM SCT040=

USA.gov is the U.S. government's official web portal to all federal, state and local government web resources and services.